LIRLLIPY

Guest
Details From LIRL - LATINA
To LIPY - FALCONARA
Flight Number -
Tags generated
Created
Modified
Stats Distance 126 nm / 234 km
Max Altitude 9,700 ft / 2,957 m
Waypoints 3
Social Downloads 0
Likes 0
Share VATSIM

Download

Looking for another format? Having issues loading an existing format? Contact us
Advertisement - Login to hide

Notes

Basic altitude profile: - Ascent Rate: 2500ft/min - Ascent Speed: 250kts - Cruise Altitude: 35000ft - Cruise Speed: 420kts - Descent Rate: 1500ft/min - Descent Speed: 250kts Options: - Use NATs: yes - Use PACOTS: yes - Use low airways: yes - Use high airways: yes

Route

LIRL PREKI LIPY

ID Type Via Altitude Latitude Longitude Leg Dist Tot Dist Heading (true) Name
O LIRL APT - 0 ft / 0 m 41.54244˚ 12.90902˚ - 0 nm - LATINA
PREKI FIX - 9,700 ft / 2,957 m 42.87750˚ 13.11917˚ 80 nm 80 nm 7° / 7° -
O LIPY APT - 0 ft / 0 m 43.61635˚ 13.36231˚ 45 nm 126 nm 13° / 14° FALCONARA

Altitude Profile

Advertisement - Login to hide

LIRL

Details ICAO LIRL (QLT)
Name LATINA
Region Italy
Timezone Europe/Rome (UTC+1.0)
Stats Elevation 93 ft / 28 m (AMSL)
Location 41.542436° 12.909019°
Runways 1
Magnetic Variation 3.102° E

METAR

LIRL 141255Z 06005KT 9999 -RA FEW020 BKN030 12/11 Q1015

Decode

TAF

Not found

Departure Runways

ID Width Length Bearing (true) Bearing (mag) Surface Threshold Offset Overrun Length
12 131 ft / 40 m 5,557 ft / 1,694 m 124.64° 121.54° Asphalt 0 ft / 0 m 174 ft / 53 m
30 131 ft / 40 m 5,557 ft / 1,694 m 304.65° 301.55° Asphalt 0 ft / 0 m 413 ft / 126 m

LIPY

Details ICAO LIPY (AOI)
Name FALCONARA
Region Italy
Timezone Europe/Rome (UTC+1.0)
Stats Elevation 49 ft / 15 m (AMSL)
Location 43.616351° 13.362310°
Runways 1
Magnetic Variation 3.294° E

METAR

LIPY 141250Z 24009KT 200V260 9999 FEW040 16/09 Q1008

Decode

TAF

TAF LIPY 141100Z 1412/1512 23015KT 9999 SCT030

Decode

Destination Runways

ID Width Length Bearing (true) Bearing (mag) Surface Threshold Offset Overrun Length
04 148 ft / 45 m 9,711 ft / 2,960 m 44.81° 41.52° Asphalt 641 ft / 195 m 0 ft / 0 m
22 148 ft / 45 m 9,711 ft / 2,960 m 224.83° 221.54° Asphalt 492 ft / 150 m 0 ft / 0 m

Approach Navaids

Runway Type Ident Frequency Range Bearing (true) Bearing (mag) Slope Elevation
22 Localiser IFA 111.90 MHz 18 nm / 33 km 224.79° 221.50° - 47 ft / 14 m (AMSL)
22 Glidescope IFA 111.90 MHz 10 nm / 19 km 224.82° 221.53° 3.50° 34 ft / 10 m (AMSL)
22 DME IFA 111.90 MHz 18 nm / 33 km - - - 50 ft / 15 m (AMSL)